Terminal Aerodrome Forecast
Issued by NWS

Home | Current Version | Previous Version | Text Only | Print | Product List | Glossary On
Versions: 1 2 3 4 5 6 7 8 9 10 11 12 13 14 15 16
000
FTUS43 KJKL 231734
TAFSJS
TAF
KSJS 231734Z 2318/2418 24008KT P6SM SCT050
     FM232000 25007KT P6SM VCTS SCT050CB
     FM232300 VRB03KT P6SM SCT050=

USA.gov is the U.S. government's official web portal to all federal, state and local government web resources and services.